sensor_id;sensor_type;location;lat;lon;timestamp;P1;durP1;ratioP1;P2;durP2;ratioP2
11394;SDS011;5753;54.402;10.220;2022-09-09T00:00:31;28.17;;;18.70;;
11394;SDS011;5753;54.402;10.220;2022-09-09T00:03:08;26.67;;;19.13;;
11394;SDS011;5753;54.402;10.220;2022-09-09T00:06:21;29.25;;;21.40;;
11394;SDS011;5753;54.402;10.220;2022-09-09T00:08:39;27.75;;;21.75;;
11394;SDS011;5753;54.402;10.220;2022-09-09T00:11:09;30.35;;;22.58;;
11394;SDS011;5753;54.402;10.220;2022-09-09T00:13:39;30.40;;;20.90;;
11394;SDS011;5753;54.402;10.220;2022-09-09T00:16:19;30.77;;;18.98;;
11394;SDS011;5753;54.402;10.220;2022-09-09T00:19:00;37.83;;;22.13;;
11394;SDS011;5753;54.402;10.220;2022-09-09T00:21:52;28.90;;;21.55;;
11394;SDS011;5753;54.402;10.220;2022-09-09T00:27:47;30.15;;;21.95;;
11394;SDS011;5753;54.402;10.220;2022-09-09T00:30:14;27.70;;;21.20;;
11394;SDS011;5753;54.402;10.220;2022-09-09T00:32:47;34.38;;;22.45;;
11394;SDS011;5753;54.402;10.220;2022-09-09T00:35:23;37.15;;;24.25;;
11394;SDS011;5753;54.402;10.220;2022-09-09T00:38:00;37.25;;;24.17;;
11394;SDS011;5753;54.402;10.220;2022-09-09T00:40:52;34.92;;;25.05;;
11394;SDS011;5753;54.402;10.220;2022-09-09T00:43:31;29.88;;;22.13;;
11394;SDS011;5753;54.402;10.220;2022-09-09T00:46:48;34.53;;;22.85;;
11394;SDS011;5753;54.402;10.220;2022-09-09T00:51:59;36.30;;;24.23;;
11394;SDS011;5753;54.402;10.220;2022-09-09T00:54:35;39.08;;;23.52;;
11394;SDS011;5753;54.402;10.220;2022-09-09T00:57:15;42.63;;;23.58;;
11394;SDS011;5753;54.402;10.220;2022-09-09T01:07:58;37.90;;;27.17;;
11394;SDS011;5753;54.402;10.220;2022-09-09T01:10:47;36.63;;;23.95;;
11394;SDS011;5753;54.402;10.220;2022-09-09T01:13:25;42.65;;;26.40;;
11394;SDS011;5753;54.402;10.220;2022-09-09T01:15:55;34.42;;;24.27;;
11394;SDS011;5753;54.402;10.220;2022-09-09T01:18:35;39.28;;;28.08;;
11394;SDS011;5753;54.402;10.220;2022-09-09T01:26:44;40.15;;;26.30;;
11394;SDS011;5753;54.402;10.220;2022-09-09T01:29:12;33.20;;;23.48;;
11394;SDS011;5753;54.402;10.220;2022-09-09T01:31:42;30.92;;;24.55;;
11394;SDS011;5753;54.402;10.220;2022-09-09T01:34:19;30.02;;;22.45;;
11394;SDS011;5753;54.402;10.220;2022-09-09T01:39:35;36.97;;;24.65;;
11394;SDS011;5753;54.402;10.220;2022-09-09T01:42:05;30.33;;;22.80;;
11394;SDS011;5753;54.402;10.220;2022-09-09T01:44:34;29.13;;;23.33;;
11394;SDS011;5753;54.402;10.220;2022-09-09T01:47:02;31.48;;;23.40;;
11394;SDS011;5753;54.402;10.220;2022-09-09T01:49:29;31.90;;;21.13;;
11394;SDS011;5753;54.402;10.220;2022-09-09T01:51:57;30.05;;;24.48;;
11394;SDS011;5753;54.402;10.220;2022-09-09T01:54:26;36.53;;;23.25;;
11394;SDS011;5753;54.402;10.220;2022-09-09T02:00:02;28.58;;;19.90;;
11394;SDS011;5753;54.402;10.220;2022-09-09T02:08:08;27.40;;;22.50;;
11394;SDS011;5753;54.402;10.220;2022-09-09T02:13:40;26.17;;;20.17;;
11394;SDS011;5753;54.402;10.220;2022-09-09T02:16:26;31.08;;;19.70;;
11394;SDS011;5753;54.402;10.220;2022-09-09T02:18:55;31.38;;;20.10;;
11394;SDS011;5753;54.402;10.220;2022-09-09T02:21:29;26.58;;;19.45;;
11394;SDS011;5753;54.402;10.220;2022-09-09T02:24:00;26.77;;;22.98;;
11394;SDS011;5753;54.402;10.220;2022-09-09T02:26:31;30.63;;;22.00;;
11394;SDS011;5753;54.402;10.220;2022-09-09T02:29:01;25.95;;;20.17;;
11394;SDS011;5753;54.402;10.220;2022-09-09T02:31:32;31.83;;;22.02;;
11394;SDS011;5753;54.402;10.220;2022-09-09T02:34:03;29.65;;;21.27;;
11394;SDS011;5753;54.402;10.220;2022-09-09T02:36:33;29.00;;;19.33;;
11394;SDS011;5753;54.402;10.220;2022-09-09T02:39:02;32.80;;;23.52;;
11394;SDS011;5753;54.402;10.220;2022-09-09T02:41:31;31.10;;;20.10;;
11394;SDS011;5753;54.402;10.220;2022-09-09T02:43:59;24.48;;;17.05;;
11394;SDS011;5753;54.402;10.220;2022-09-09T02:52:04;29.35;;;20.30;;
11394;SDS011;5753;54.402;10.220;2022-09-09T02:54:55;30.60;;;20.98;;
11394;SDS011;5753;54.402;10.220;2022-09-09T02:57:29;26.85;;;18.70;;
11394;SDS011;5753;54.402;10.220;2022-09-09T02:59:57;24.35;;;17.73;;
11394;SDS011;5753;54.402;10.220;2022-09-09T03:02:25;31.27;;;23.75;;
11394;SDS011;5753;54.402;10.220;2022-09-09T03:04:51;31.60;;;22.80;;
11394;SDS011;5753;54.402;10.220;2022-09-09T03:07:18;36.17;;;21.65;;
11394;SDS011;5753;54.402;10.220;2022-09-09T03:09:44;27.58;;;18.08;;
11394;SDS011;5753;54.402;10.220;2022-09-09T03:12:10;28.67;;;22.33;;
11394;SDS011;5753;54.402;10.220;2022-09-09T03:14:37;30.52;;;23.10;;
11394;SDS011;5753;54.402;10.220;2022-09-09T03:17:04;33.63;;;23.55;;
11394;SDS011;5753;54.402;10.220;2022-09-09T03:19:31;34.05;;;23.48;;
11394;SDS011;5753;54.402;10.220;2022-09-09T03:22:00;33.67;;;22.85;;
11394;SDS011;5753;54.402;10.220;2022-09-09T03:24:26;47.83;;;25.88;;
11394;SDS011;5753;54.402;10.220;2022-09-09T03:26:52;35.00;;;21.58;;
11394;SDS011;5753;54.402;10.220;2022-09-09T03:29:20;41.40;;;25.98;;
11394;SDS011;5753;54.402;10.220;2022-09-09T03:31:46;36.53;;;24.58;;
11394;SDS011;5753;54.402;10.220;2022-09-09T03:34:13;41.72;;;25.58;;
11394;SDS011;5753;54.402;10.220;2022-09-09T03:36:39;42.40;;;26.08;;
11394;SDS011;5753;54.402;10.220;2022-09-09T03:39:06;37.20;;;25.95;;
11394;SDS011;5753;54.402;10.220;2022-09-09T03:41:32;46.22;;;30.52;;
11394;SDS011;5753;54.402;10.220;2022-09-09T03:43:59;40.90;;;30.35;;
11394;SDS011;5753;54.402;10.220;2022-09-09T03:46:25;50.08;;;31.95;;
11394;SDS011;5753;54.402;10.220;2022-09-09T03:48:52;44.85;;;26.80;;
11394;SDS011;5753;54.402;10.220;2022-09-09T03:51:18;49.53;;;28.45;;
11394;SDS011;5753;54.402;10.220;2022-09-09T03:53:44;53.05;;;32.55;;
11394;SDS011;5753;54.402;10.220;2022-09-09T03:56:11;44.60;;;28.08;;
11394;SDS011;5753;54.402;10.220;2022-09-09T03:58:37;48.50;;;32.15;;
11394;SDS011;5753;54.402;10.220;2022-09-09T04:03:32;53.13;;;30.02;;
11394;SDS011;5753;54.402;10.220;2022-09-09T04:05:59;43.92;;;28.65;;
11394;SDS011;5753;54.402;10.220;2022-09-09T04:08:28;49.83;;;30.38;;
11394;SDS011;5753;54.402;10.220;2022-09-09T04:10:56;54.20;;;32.70;;
11394;SDS011;5753;54.402;10.220;2022-09-09T04:13:22;55.97;;;31.05;;
11394;SDS011;5753;54.402;10.220;2022-09-09T04:15:53;58.83;;;35.83;;
11394;SDS011;5753;54.402;10.220;2022-09-09T04:18:21;49.70;;;32.22;;
11394;SDS011;5753;54.402;10.220;2022-09-09T04:20:50;48.28;;;31.42;;
11394;SDS011;5753;54.402;10.220;2022-09-09T04:23:17;53.72;;;28.80;;
11394;SDS011;5753;54.402;10.220;2022-09-09T04:25:49;47.03;;;28.75;;
11394;SDS011;5753;54.402;10.220;2022-09-09T04:28:17;47.13;;;25.88;;
11394;SDS011;5753;54.402;10.220;2022-09-09T04:30:45;47.95;;;31.13;;
11394;SDS011;5753;54.402;10.220;2022-09-09T04:33:12;41.70;;;27.20;;
11394;SDS011;5753;54.402;10.220;2022-09-09T04:35:39;48.50;;;27.73;;
11394;SDS011;5753;54.402;10.220;2022-09-09T04:38:09;48.65;;;28.92;;
11394;SDS011;5753;54.402;10.220;2022-09-09T04:40:35;44.80;;;28.55;;
11394;SDS011;5753;54.402;10.220;2022-09-09T04:43:02;44.65;;;28.48;;
11394;SDS011;5753;54.402;10.220;2022-09-09T04:45:29;53.22;;;31.02;;
11394;SDS011;5753;54.402;10.220;2022-09-09T04:47:55;42.50;;;26.83;;
11394;SDS011;5753;54.402;10.220;2022-09-09T04:50:22;40.95;;;24.92;;
11394;SDS011;5753;54.402;10.220;2022-09-09T04:52:48;42.55;;;26.77;;
11394;SDS011;5753;54.402;10.220;2022-09-09T04:55:14;44.10;;;28.02;;
11394;SDS011;5753;54.402;10.220;2022-09-09T04:57:40;47.10;;;28.08;;
11394;SDS011;5753;54.402;10.220;2022-09-09T05:00:07;49.65;;;27.88;;
11394;SDS011;5753;54.402;10.220;2022-09-09T05:02:36;43.75;;;27.02;;
11394;SDS011;5753;54.402;10.220;2022-09-09T05:05:07;45.10;;;25.45;;
11394;SDS011;5753;54.402;10.220;2022-09-09T05:07:33;34.50;;;24.25;;
11394;SDS011;5753;54.402;10.220;2022-09-09T05:09:59;41.20;;;26.85;;
11394;SDS011;5753;54.402;10.220;2022-09-09T05:12:25;42.70;;;26.15;;
11394;SDS011;5753;54.402;10.220;2022-09-09T05:14:52;39.00;;;26.17;;
11394;SDS011;5753;54.402;10.220;2022-09-09T05:17:18;45.13;;;26.95;;
11394;SDS011;5753;54.402;10.220;2022-09-09T05:19:44;37.03;;;23.98;;
11394;SDS011;5753;54.402;10.220;2022-09-09T05:22:10;44.35;;;25.33;;
11394;SDS011;5753;54.402;10.220;2022-09-09T05:24:37;46.85;;;28.38;;
11394;SDS011;5753;54.402;10.220;2022-09-09T05:27:03;39.88;;;28.55;;
11394;SDS011;5753;54.402;10.220;2022-09-09T05:29:31;47.75;;;28.40;;
11394;SDS011;5753;54.402;10.220;2022-09-09T05:32:00;35.33;;;23.38;;
11394;SDS011;5753;54.402;10.220;2022-09-09T05:34:26;51.00;;;28.00;;
11394;SDS011;5753;54.402;10.220;2022-09-09T05:36:52;41.95;;;27.98;;
11394;SDS011;5753;54.402;10.220;2022-09-09T05:39:18;35.85;;;25.90;;
11394;SDS011;5753;54.402;10.220;2022-09-09T05:41:44;33.25;;;23.58;;
11394;SDS011;5753;54.402;10.220;2022-09-09T05:44:10;38.40;;;23.83;;
11394;SDS011;5753;54.402;10.220;2022-09-09T05:46:37;50.38;;;27.30;;
11394;SDS011;5753;54.402;10.220;2022-09-09T05:49:03;36.28;;;23.13;;
11394;SDS011;5753;54.402;10.220;2022-09-09T05:51:30;41.13;;;25.15;;
11394;SDS011;5753;54.402;10.220;2022-09-09T05:53:57;40.47;;;28.55;;
11394;SDS011;5753;54.402;10.220;2022-09-09T05:56:27;47.15;;;28.60;;
11394;SDS011;5753;54.402;10.220;2022-09-09T05:58:54;47.25;;;29.35;;
11394;SDS011;5753;54.402;10.220;2022-09-09T06:01:25;41.03;;;27.02;;
11394;SDS011;5753;54.402;10.220;2022-09-09T06:03:56;38.60;;;26.95;;
11394;SDS011;5753;54.402;10.220;2022-09-09T06:06:23;37.10;;;24.20;;
11394;SDS011;5753;54.402;10.220;2022-09-09T06:08:56;45.72;;;27.63;;
11394;SDS011;5753;54.402;10.220;2022-09-09T06:11:23;39.47;;;26.23;;
11394;SDS011;5753;54.402;10.220;2022-09-09T06:13:51;43.05;;;24.77;;
11394;SDS011;5753;54.402;10.220;2022-09-09T06:16:20;49.08;;;29.05;;
11394;SDS011;5753;54.402;10.220;2022-09-09T06:18:50;43.08;;;27.83;;
11394;SDS011;5753;54.402;10.220;2022-09-09T06:21:19;45.85;;;29.05;;
11394;SDS011;5753;54.402;10.220;2022-09-09T06:23:47;38.45;;;27.75;;
11394;SDS011;5753;54.402;10.220;2022-09-09T06:26:14;45.25;;;25.90;;
11394;SDS011;5753;54.402;10.220;2022-09-09T06:28:43;42.63;;;29.08;;
11394;SDS011;5753;54.402;10.220;2022-09-09T06:31:11;53.28;;;31.08;;
11394;SDS011;5753;54.402;10.220;2022-09-09T06:33:39;39.42;;;25.25;;
11394;SDS011;5753;54.402;10.220;2022-09-09T06:36:13;47.08;;;28.13;;
11394;SDS011;5753;54.402;10.220;2022-09-09T06:38:41;40.00;;;25.98;;
11394;SDS011;5753;54.402;10.220;2022-09-09T06:41:08;52.92;;;29.23;;
11394;SDS011;5753;54.402;10.220;2022-09-09T06:43:35;42.70;;;27.30;;
11394;SDS011;5753;54.402;10.220;2022-09-09T06:46:05;49.67;;;28.58;;
11394;SDS011;5753;54.402;10.220;2022-09-09T06:48:34;45.90;;;27.55;;
11394;SDS011;5753;54.402;10.220;2022-09-09T06:51:12;45.38;;;26.75;;
11394;SDS011;5753;54.402;10.220;2022-09-09T06:53:41;52.13;;;30.50;;
11394;SDS011;5753;54.402;10.220;2022-09-09T06:58:35;58.38;;;31.98;;
11394;SDS011;5753;54.402;10.220;2022-09-09T07:01:03;53.33;;;33.30;;
11394;SDS011;5753;54.402;10.220;2022-09-09T07:03:30;46.22;;;27.17;;
11394;SDS011;5753;54.402;10.220;2022-09-09T07:05:57;49.33;;;25.85;;
11394;SDS011;5753;54.402;10.220;2022-09-09T07:08:24;37.22;;;22.98;;
11394;SDS011;5753;54.402;10.220;2022-09-09T07:10:50;49.63;;;26.38;;
11394;SDS011;5753;54.402;10.220;2022-09-09T07:13:23;42.42;;;27.63;;
11394;SDS011;5753;54.402;10.220;2022-09-09T07:15:51;43.53;;;28.33;;
11394;SDS011;5753;54.402;10.220;2022-09-09T07:18:17;41.88;;;24.48;;
11394;SDS011;5753;54.402;10.220;2022-09-09T07:20:52;53.53;;;28.92;;
11394;SDS011;5753;54.402;10.220;2022-09-09T07:23:22;42.88;;;27.00;;
11394;SDS011;5753;54.402;10.220;2022-09-09T07:25:49;40.83;;;23.70;;
11394;SDS011;5753;54.402;10.220;2022-09-09T07:28:16;37.03;;;21.55;;
11394;SDS011;5753;54.402;10.220;2022-09-09T07:30:59;40.65;;;23.38;;
11394;SDS011;5753;54.402;10.220;2022-09-09T07:33:29;38.53;;;23.38;;
11394;SDS011;5753;54.402;10.220;2022-09-09T07:38:37;35.42;;;24.45;;
11394;SDS011;5753;54.402;10.220;2022-09-09T07:41:08;34.00;;;23.40;;
11394;SDS011;5753;54.402;10.220;2022-09-09T07:43:40;37.67;;;20.50;;
11394;SDS011;5753;54.402;10.220;2022-09-09T07:46:08;35.70;;;23.38;;
11394;SDS011;5753;54.402;10.220;2022-09-09T07:48:35;29.65;;;21.67;;
11394;SDS011;5753;54.402;10.220;2022-09-09T07:51:05;35.35;;;25.40;;
11394;SDS011;5753;54.402;10.220;2022-09-09T07:53:33;31.42;;;21.58;;
11394;SDS011;5753;54.402;10.220;2022-09-09T07:56:05;28.27;;;20.45;;
11394;SDS011;5753;54.402;10.220;2022-09-09T07:58:35;28.73;;;21.92;;
11394;SDS011;5753;54.402;10.220;2022-09-09T08:01:10;35.88;;;19.92;;
11394;SDS011;5753;54.402;10.220;2022-09-09T08:03:52;31.20;;;22.48;;
11394;SDS011;5753;54.402;10.220;2022-09-09T08:06:24;36.20;;;23.20;;
11394;SDS011;5753;54.402;10.220;2022-09-09T08:08:51;33.65;;;20.85;;
11394;SDS011;5753;54.402;10.220;2022-09-09T08:11:19;28.00;;;19.65;;
11394;SDS011;5753;54.402;10.220;2022-09-09T08:13:48;38.05;;;22.98;;
11394;SDS011;5753;54.402;10.220;2022-09-09T08:16:16;31.85;;;23.30;;
11394;SDS011;5753;54.402;10.220;2022-09-09T08:18:47;29.83;;;23.85;;
11394;SDS011;5753;54.402;10.220;2022-09-09T08:21:23;34.78;;;24.35;;
11394;SDS011;5753;54.402;10.220;2022-09-09T08:23:52;35.35;;;21.45;;
11394;SDS011;5753;54.402;10.220;2022-09-09T08:26:38;36.33;;;22.70;;
11394;SDS011;5753;54.402;10.220;2022-09-09T08:29:07;24.55;;;19.25;;
11394;SDS011;5753;54.402;10.220;2022-09-09T08:31:45;35.00;;;20.83;;
11394;SDS011;5753;54.402;10.220;2022-09-09T08:34:13;27.45;;;22.45;;
11394;SDS011;5753;54.402;10.220;2022-09-09T08:36:43;32.50;;;18.30;;
11394;SDS011;5753;54.402;10.220;2022-09-09T08:39:11;30.30;;;18.00;;
11394;SDS011;5753;54.402;10.220;2022-09-09T08:52:16;27.73;;;19.40;;
11394;SDS011;5753;54.402;10.220;2022-09-09T08:54:50;24.98;;;20.27;;
11394;SDS011;5753;54.402;10.220;2022-09-09T08:57:19;21.02;;;15.77;;
11394;SDS011;5753;54.402;10.220;2022-09-09T08:59:53;27.88;;;18.48;;
11394;SDS011;5753;54.402;10.220;2022-09-09T09:02:31;26.05;;;16.60;;
11394;SDS011;5753;54.402;10.220;2022-09-09T09:12:57;19.13;;;15.40;;
11394;SDS011;5753;54.402;10.220;2022-09-09T09:15:27;20.70;;;12.98;;
11394;SDS011;5753;54.402;10.220;2022-09-09T09:18:02;23.83;;;16.95;;
11394;SDS011;5753;54.402;10.220;2022-09-09T09:20:52;20.55;;;15.00;;
11394;SDS011;5753;54.402;10.220;2022-09-09T09:23:24;20.67;;;15.23;;
11394;SDS011;5753;54.402;10.220;2022-09-09T09:25:56;22.83;;;15.27;;
11394;SDS011;5753;54.402;10.220;2022-09-09T09:28:25;16.63;;;11.88;;
11394;SDS011;5753;54.402;10.220;2022-09-09T09:31:04;21.95;;;13.82;;
11394;SDS011;5753;54.402;10.220;2022-09-09T09:33:35;19.45;;;14.73;;
11394;SDS011;5753;54.402;10.220;2022-09-09T09:36:08;18.77;;;15.75;;
11394;SDS011;5753;54.402;10.220;2022-09-09T09:38:34;23.67;;;16.63;;
11394;SDS011;5753;54.402;10.220;2022-09-09T09:41:01;16.90;;;14.35;;
11394;SDS011;5753;54.402;10.220;2022-09-09T09:43:31;17.85;;;14.48;;
11394;SDS011;5753;54.402;10.220;2022-09-09T09:45:59;16.38;;;13.15;;
11394;SDS011;5753;54.402;10.220;2022-09-09T09:48:28;15.07;;;12.90;;
11394;SDS011;5753;54.402;10.220;2022-09-09T09:51:00;14.23;;;11.98;;
11394;SDS011;5753;54.402;10.220;2022-09-09T09:53:31;16.35;;;13.68;;
11394;SDS011;5753;54.402;10.220;2022-09-09T09:58:26;16.92;;;15.15;;
11394;SDS011;5753;54.402;10.220;2022-09-09T10:00:57;15.90;;;12.55;;
11394;SDS011;5753;54.402;10.220;2022-09-09T10:05:52;15.85;;;14.15;;
11394;SDS011;5753;54.402;10.220;2022-09-09T10:08:19;17.02;;;13.00;;
11394;SDS011;5753;54.402;10.220;2022-09-09T10:25:04;12.13;;;10.93;;
11394;SDS011;5753;54.402;10.220;2022-09-09T10:30:41;19.23;;;11.77;;
11394;SDS011;5753;54.402;10.220;2022-09-09T10:36:16;10.65;;;9.45;;
11394;SDS011;5753;54.402;10.220;2022-09-09T10:39:04;11.95;;;9.38;;
11394;SDS011;5753;54.402;10.220;2022-09-09T10:41:51;13.37;;;10.63;;
11394;SDS011;5753;54.402;10.220;2022-09-09T10:44:31;12.50;;;11.02;;
11394;SDS011;5753;54.402;10.220;2022-09-09T10:52:22;12.40;;;11.15;;
11394;SDS011;5753;54.402;10.220;2022-09-09T10:55:19;12.25;;;8.27;;
11394;SDS011;5753;54.402;10.220;2022-09-09T10:57:51;10.63;;;9.38;;
11394;SDS011;5753;54.402;10.220;2022-09-09T11:00:20;10.65;;;8.95;;
11394;SDS011;5753;54.402;10.220;2022-09-09T11:02:55;14.07;;;8.55;;
11394;SDS011;5753;54.402;10.220;2022-09-09T11:05:31;9.88;;;8.98;;
11394;SDS011;5753;54.402;10.220;2022-09-09T11:08:10;12.32;;;7.03;;
11394;SDS011;5753;54.402;10.220;2022-09-09T11:11:02;5.90;;;5.32;;
11394;SDS011;5753;54.402;10.220;2022-09-09T11:16:21;9.10;;;4.90;;
11394;SDS011;5753;54.402;10.220;2022-09-09T11:18:51;4.82;;;4.25;;
11394;SDS011;5753;54.402;10.220;2022-09-09T11:21:40;6.30;;;4.57;;
11394;SDS011;5753;54.402;10.220;2022-09-09T11:24:13;4.20;;;3.78;;
11394;SDS011;5753;54.402;10.220;2022-09-09T11:29:47;2.88;;;2.58;;
11394;SDS011;5753;54.402;10.220;2022-09-09T11:32:31;4.55;;;4.25;;
11394;SDS011;5753;54.402;10.220;2022-09-09T11:38:26;6.32;;;2.45;;
11394;SDS011;5753;54.402;10.220;2022-09-09T11:41:12;2.17;;;2.00;;
11394;SDS011;5753;54.402;10.220;2022-09-09T11:43:44;3.15;;;2.70;;
11394;SDS011;5753;54.402;10.220;2022-09-09T11:46:12;2.17;;;1.98;;
11394;SDS011;5753;54.402;10.220;2022-09-09T11:48:45;2.10;;;1.92;;
11394;SDS011;5753;54.402;10.220;2022-09-09T11:51:26;6.05;;;2.50;;
11394;SDS011;5753;54.402;10.220;2022-09-09T11:53:56;2.17;;;1.98;;
11394;SDS011;5753;54.402;10.220;2022-09-09T11:56:30;2.45;;;1.55;;
11394;SDS011;5753;54.402;10.220;2022-09-09T11:59:02;2.38;;;1.90;;
11394;SDS011;5753;54.402;10.220;2022-09-09T12:01:37;7.30;;;1.40;;
11394;SDS011;5753;54.402;10.220;2022-09-09T12:06:43;2.83;;;1.52;;
11394;SDS011;5753;54.402;10.220;2022-09-09T12:09:21;1.85;;;1.67;;
11394;SDS011;5753;54.402;10.220;2022-09-09T12:19:44;1.83;;;1.65;;
11394;SDS011;5753;54.402;10.220;2022-09-09T12:22:23;3.92;;;1.58;;
11394;SDS011;5753;54.402;10.220;2022-09-09T12:27:34;2.42;;;1.13;;
11394;SDS011;5753;54.402;10.220;2022-09-09T12:30:22;1.92;;;1.63;;
11394;SDS011;5753;54.402;10.220;2022-09-09T12:33:02;2.22;;;1.85;;
11394;SDS011;5753;54.402;10.220;2022-09-09T12:35:35;1.77;;;1.38;;
11394;SDS011;5753;54.402;10.220;2022-09-09T12:38:03;1.45;;;1.30;;
11394;SDS011;5753;54.402;10.220;2022-09-09T12:40:34;2.05;;;1.67;;
11394;SDS011;5753;54.402;10.220;2022-09-09T12:43:16;3.38;;;1.80;;
11394;SDS011;5753;54.402;10.220;2022-09-09T12:45:45;1.13;;;1.02;;
11394;SDS011;5753;54.402;10.220;2022-09-09T12:48:12;1.17;;;1.08;;
11394;SDS011;5753;54.402;10.220;2022-09-09T12:50:49;4.60;;;1.70;;
11394;SDS011;5753;54.402;10.220;2022-09-09T12:53:28;0.70;;;0.70;;
11394;SDS011;5753;54.402;10.220;2022-09-09T12:58:25;1.60;;;1.38;;
11394;SDS011;5753;54.402;10.220;2022-09-09T13:00:54;1.15;;;0.88;;
11394;SDS011;5753;54.402;10.220;2022-09-09T13:03:22;1.08;;;0.82;;
11394;SDS011;5753;54.402;10.220;2022-09-09T13:05:50;9.30;;;1.05;;
11394;SDS011;5753;54.402;10.220;2022-09-09T13:08:17;2.45;;;0.98;;
11394;SDS011;5753;54.402;10.220;2022-09-09T13:10:57;2.67;;;0.85;;
11394;SDS011;5753;54.402;10.220;2022-09-09T13:16:05;2.28;;;0.88;;
11394;SDS011;5753;54.402;10.220;2022-09-09T13:18:42;3.22;;;1.08;;
11394;SDS011;5753;54.402;10.220;2022-09-09T13:21:09;1.05;;;0.90;;
11394;SDS011;5753;54.402;10.220;2022-09-09T13:23:36;1.10;;;0.93;;
11394;SDS011;5753;54.402;10.220;2022-09-09T13:26:04;1.00;;;0.90;;
11394;SDS011;5753;54.402;10.220;2022-09-09T13:28:47;1.08;;;0.80;;
11394;SDS011;5753;54.402;10.220;2022-09-09T13:31:27;1.50;;;1.08;;
11394;SDS011;5753;54.402;10.220;2022-09-09T13:33:56;1.92;;;1.00;;
11394;SDS011;5753;54.402;10.220;2022-09-09T13:36:32;1.88;;;1.55;;
11394;SDS011;5753;54.402;10.220;2022-09-09T13:39:00;2.45;;;0.70;;
11394;SDS011;5753;54.402;10.220;2022-09-09T13:41:42;3.90;;;2.10;;
11394;SDS011;5753;54.402;10.220;2022-09-09T13:44:20;2.00;;;0.93;;
11394;SDS011;5753;54.402;10.220;2022-09-09T13:47:01;1.27;;;1.17;;
11394;SDS011;5753;54.402;10.220;2022-09-09T13:49:42;1.15;;;0.80;;
11394;SDS011;5753;54.402;10.220;2022-09-09T13:52:15;3.42;;;1.25;;
11394;SDS011;5753;54.402;10.220;2022-09-09T13:54:47;2.95;;;1.00;;
11394;SDS011;5753;54.402;10.220;2022-09-09T13:59:46;1.40;;;1.10;;
11394;SDS011;5753;54.402;10.220;2022-09-09T14:02:13;3.28;;;1.95;;
11394;SDS011;5753;54.402;10.220;2022-09-09T14:04:39;1.02;;;0.90;;
11394;SDS011;5753;54.402;10.220;2022-09-09T14:07:08;3.40;;;1.27;;
11394;SDS011;5753;54.402;10.220;2022-09-09T14:09:40;1.60;;;1.40;;
11394;SDS011;5753;54.402;10.220;2022-09-09T14:12:10;2.38;;;1.52;;
11394;SDS011;5753;54.402;10.220;2022-09-09T14:14:37;1.10;;;1.00;;
11394;SDS011;5753;54.402;10.220;2022-09-09T14:17:03;1.98;;;1.45;;
11394;SDS011;5753;54.402;10.220;2022-09-09T14:19:30;1.10;;;1.00;;
11394;SDS011;5753;54.402;10.220;2022-09-09T14:21:56;1.73;;;0.80;;
11394;SDS011;5753;54.402;10.220;2022-09-09T14:24:23;2.50;;;0.98;;
11394;SDS011;5753;54.402;10.220;2022-09-09T14:26:50;1.23;;;1.13;;
11394;SDS011;5753;54.402;10.220;2022-09-09T14:29:16;1.38;;;0.98;;
11394;SDS011;5753;54.402;10.220;2022-09-09T14:31:42;2.10;;;1.90;;
11394;SDS011;5753;54.402;10.220;2022-09-09T14:34:08;2.10;;;1.90;;
11394;SDS011;5753;54.402;10.220;2022-09-09T14:36:35;4.63;;;1.98;;
11394;SDS011;5753;54.402;10.220;2022-09-09T14:39:02;3.95;;;2.08;;
11394;SDS011;5753;54.402;10.220;2022-09-09T14:41:29;6.22;;;1.63;;
11394;SDS011;5753;54.402;10.220;2022-09-09T14:43:55;3.85;;;1.45;;
11394;SDS011;5753;54.402;10.220;2022-09-09T14:46:22;2.35;;;1.50;;
11394;SDS011;5753;54.402;10.220;2022-09-09T14:48:48;6.35;;;1.98;;
11394;SDS011;5753;54.402;10.220;2022-09-09T14:51:18;3.42;;;1.10;;
11394;SDS011;5753;54.402;10.220;2022-09-09T14:53:47;0.75;;;0.70;;
11394;SDS011;5753;54.402;10.220;2022-09-09T14:56:17;1.70;;;0.80;;
11394;SDS011;5753;54.402;10.220;2022-09-09T14:58:45;4.13;;;0.80;;
11394;SDS011;5753;54.402;10.220;2022-09-09T15:01:12;0.77;;;0.77;;
11394;SDS011;5753;54.402;10.220;2022-09-09T15:03:43;1.08;;;0.90;;
11394;SDS011;5753;54.402;10.220;2022-09-09T15:06:15;2.28;;;0.85;;
11394;SDS011;5753;54.402;10.220;2022-09-09T15:08:42;1.83;;;1.23;;
11394;SDS011;5753;54.402;10.220;2022-09-09T15:11:10;1.23;;;0.90;;
11394;SDS011;5753;54.402;10.220;2022-09-09T15:13:38;2.03;;;1.13;;
11394;SDS011;5753;54.402;10.220;2022-09-09T15:18:41;1.75;;;1.55;;
11394;SDS011;5753;54.402;10.220;2022-09-09T15:21:14;2.90;;;1.67;;
11394;SDS011;5753;54.402;10.220;2022-09-09T15:26:09;2.90;;;2.08;;
11394;SDS011;5753;54.402;10.220;2022-09-09T15:28:36;2.65;;;2.45;;
11394;SDS011;5753;54.402;10.220;2022-09-09T15:31:06;4.43;;;2.20;;
11394;SDS011;5753;54.402;10.220;2022-09-09T15:33:37;10.48;;;2.33;;
11394;SDS011;5753;54.402;10.220;2022-09-09T15:36:18;5.30;;;2.10;;
11394;SDS011;5753;54.402;10.220;2022-09-09T15:38:46;6.55;;;2.00;;
11394;SDS011;5753;54.402;10.220;2022-09-09T15:41:13;3.65;;;1.88;;
11394;SDS011;5753;54.402;10.220;2022-09-09T15:43:43;2.10;;;1.90;;
11394;SDS011;5753;54.402;10.220;2022-09-09T15:49:10;2.85;;;1.70;;
11394;SDS011;5753;54.402;10.220;2022-09-09T15:51:38;1.38;;;1.23;;
11394;SDS011;5753;54.402;10.220;2022-09-09T15:54:13;3.60;;;2.60;;
11394;SDS011;5753;54.402;10.220;2022-09-09T15:59:09;2.35;;;1.70;;
11394;SDS011;5753;54.402;10.220;2022-09-09T16:01:36;2.17;;;1.80;;
11394;SDS011;5753;54.402;10.220;2022-09-09T16:04:04;2.05;;;1.80;;
11394;SDS011;5753;54.402;10.220;2022-09-09T16:06:31;3.08;;;2.47;;
11394;SDS011;5753;54.402;10.220;2022-09-09T16:08:58;2.78;;;2.47;;
11394;SDS011;5753;54.402;10.220;2022-09-09T16:11:31;2.80;;;1.85;;
11394;SDS011;5753;54.402;10.220;2022-09-09T16:13:59;2.30;;;2.08;;
11394;SDS011;5753;54.402;10.220;2022-09-09T16:16:27;4.38;;;2.50;;
11394;SDS011;5753;54.402;10.220;2022-09-09T16:18:58;4.68;;;3.25;;
11394;SDS011;5753;54.402;10.220;2022-09-09T16:21:28;15.32;;;3.03;;
11394;SDS011;5753;54.402;10.220;2022-09-09T16:23:57;3.85;;;3.10;;
11394;SDS011;5753;54.402;10.220;2022-09-09T16:26:24;4.13;;;3.05;;
11394;SDS011;5753;54.402;10.220;2022-09-09T16:28:52;3.70;;;3.42;;
11394;SDS011;5753;54.402;10.220;2022-09-09T16:31:21;5.68;;;2.72;;
11394;SDS011;5753;54.402;10.220;2022-09-09T16:33:49;2.75;;;2.55;;
11394;SDS011;5753;54.402;10.220;2022-09-09T16:36:20;6.28;;;2.63;;
11394;SDS011;5753;54.402;10.220;2022-09-09T16:38:52;3.00;;;1.98;;
11394;SDS011;5753;54.402;10.220;2022-09-09T16:41:26;3.22;;;3.03;;
11394;SDS011;5753;54.402;10.220;2022-09-09T16:43:54;3.78;;;2.95;;
11394;SDS011;5753;54.402;10.220;2022-09-09T16:46:25;2.95;;;2.60;;
11394;SDS011;5753;54.402;10.220;2022-09-09T16:48:52;4.28;;;3.33;;
11394;SDS011;5753;54.402;10.220;2022-09-09T16:51:21;2.47;;;2.17;;
11394;SDS011;5753;54.402;10.220;2022-09-09T16:53:49;2.90;;;2.70;;
11394;SDS011;5753;54.402;10.220;2022-09-09T16:56:18;4.40;;;4.00;;
11394;SDS011;5753;54.402;10.220;2022-09-09T16:58:49;12.15;;;4.28;;
11394;SDS011;5753;54.402;10.220;2022-09-09T17:01:17;3.55;;;3.15;;
11394;SDS011;5753;54.402;10.220;2022-09-09T17:03:43;6.50;;;4.18;;
11394;SDS011;5753;54.402;10.220;2022-09-09T17:06:10;4.75;;;3.92;;
11394;SDS011;5753;54.402;10.220;2022-09-09T17:08:40;2.53;;;2.33;;